Time;durP1;ratioP1;P1;durP2;ratioP2;P2;SDS_P1;SDS_P2;PMS_P1;PMS_P2;Temp;Humidity;BMP_temperature;BMP_pressure;BME280_temperature;BME280_humidity;BME280_pressure;Samples;Min_cycle;Max_cycle;Signal;HPM_P1;HPM_P2
2020/12/08 00:00:14;;;;;;;19.00;13.05;;;;;;;9.52;75.39;99086.19;5074977;28;20435;-82
2020/12/08 00:02:40;;;;;;;15.40;9.68;;;;;;;9.43;75.50;99074.91;5057120;28;20358;-80
2020/12/08 00:05:05;;;;;;;15.05;10.15;;;;;;;9.22;75.48;99046.66;5074587;28;20052;-77
2020/12/08 00:07:31;;;;;;;14.35;10.25;;;;;;;9.55;75.24;99089.28;5075953;28;20346;-84
2020/12/08 00:09:56;;;;;;;13.55;10.15;;;;;;;9.53;75.88;99086.00;5058498;28;20101;-77
2020/12/08 00:12:23;;;;;;;12.57;8.63;;;;;;;9.54;75.36;99097.38;5074970;28;20028;-86
2020/12/08 00:14:48;;;;;;;10.25;7.97;;;;;;;9.22;75.58;99049.31;5057062;28;20020;-78
2020/12/08 00:17:14;;;;;;;9.35;7.25;;;;;;;9.40;75.31;99085.81;5074726;28;20047;-78
2020/12/08 00:19:39;;;;;;;10.95;8.38;;;;;;;9.49;75.72;99105.81;5056894;28;20024;-83
2020/12/08 00:22:04;;;;;;;8.95;6.63;;;;;;;9.00;75.61;99044.94;5056945;28;20024;-79
2020/12/08 00:24:30;;;;;;;10.02;8.70;;;;;;;9.11;75.44;99057.66;5074466;28;20391;-79
2020/12/08 00:26:55;;;;;;;10.10;7.75;;;;;;;9.01;75.98;99046.56;5074662;28;20028;-84
2020/12/08 00:29:20;;;;;;;8.02;7.05;;;;;;;9.38;75.83;99097.53;5056981;28;20028;-84
2020/12/08 00:31:46;;;;;;;8.00;6.28;;;;;;;8.99;75.69;99031.94;5056856;28;20401;-84
2020/12/08 00:34:11;;;;;;;7.05;6.18;;;;;;;9.48;75.77;99122.63;5056942;28;20036;-83
2020/12/08 00:36:37;;;;;;;6.05;5.45;;;;;;;9.47;75.94;99115.72;5074569;28;20339;-80
2020/12/08 00:39:02;;;;;;;7.55;5.82;;;;;;;9.47;75.92;99117.53;5074597;28;20111;-85
2020/12/08 00:41:28;;;;;;;5.88;4.90;;;;;;;8.99;75.75;99066.19;5056850;28;20036;-86
2020/12/08 00:43:53;;;;;;;6.25;4.90;;;;;;;9.00;75.88;99058.09;5074439;28;20028;-83
2020/12/08 00:46:19;;;;;;;7.78;6.05;;;;;;;9.44;75.94;99115.25;5074481;28;20071;-82
2020/12/08 00:48:46;;;;;;;10.50;8.95;;;;;;;8.67;75.78;98999.66;5056761;28;20031;-84
2020/12/08 00:51:11;;;;;;;8.65;7.70;;;;;;;8.93;76.24;99043.19;5074529;28;20099;-81
2020/12/08 00:53:37;;;;;;;6.03;5.22;;;;;;;9.15;75.79;99072.09;5074375;28;20495;-80
2020/12/08 00:56:12;;;;;;;6.13;5.30;;;;;;;9.41;75.98;99113.81;5056665;28;20068;-82
2020/12/08 00:58:37;;;;;;;5.63;5.03;;;;;;;9.42;75.69;99120.72;5074359;28;20055;-83
2020/12/08 01:01:04;;;;;;;5.05;4.55;;;;;;;9.30;75.79;99109.00;5074419;28;20064;-83
2020/12/08 01:03:30;;;;;;;5.60;4.35;;;;;;;9.31;76.61;99110.63;5056459;28;20039;-84
2020/12/08 01:05:56;;;;;;;4.60;4.18;;;;;;;9.36;75.68;99125.88;5056522;28;20438;-80
2020/12/08 01:08:21;;;;;;;7.38;6.25;;;;;;;9.38;75.88;99132.63;5074442;28;20033;-83
2020/12/08 01:10:46;;;;;;;7.30;5.40;;;;;;;9.41;76.11;99120.91;5056682;28;20024;-81
2020/12/08 01:13:12;;;;;;;5.88;4.85;;;;;;;9.38;76.25;99111.53;5083981;28;20082;-80
2020/12/08 01:15:37;;;;;;;5.35;4.85;;;;;;;9.12;76.28;99069.81;5080049;28;20028;-82
2020/12/08 01:18:02;;;;;;;4.47;4.07;;;;;;;8.71;75.77;99026.44;5058886;28;20032;-83
2020/12/08 01:20:28;;;;;;;3.65;3.35;;;;;;;8.89;75.76;99035.63;5078056;28;20035;-82
2020/12/08 01:22:54;;;;;;;5.03;3.30;;;;;;;8.89;76.04;99026.91;5077954;28;20426;-77
2020/12/08 01:25:19;;;;;;;4.20;3.67;;;;;;;9.41;76.15;99111.16;5077899;28;20055;-78
2020/12/08 01:27:45;;;;;;;3.80;3.40;;;;;;;9.28;76.05;99091.72;5077773;28;20036;-78
2020/12/08 01:30:10;;;;;;;4.82;3.60;;;;;;;9.30;76.18;99090.53;5077850;28;20108;-78
2020/12/08 01:32:35;;;;;;;4.50;4.10;;;;;;;8.93;75.90;99025.59;5059844;28;20438;-78
2020/12/08 01:35:01;;;;;;;3.95;3.45;;;;;;;9.37;76.32;99099.34;5077718;28;20027;-76
2020/12/08 01:37:26;;;;;;;5.00;4.07;;;;;;;9.22;76.14;99094.09;5059861;28;20111;-77
2020/12/08 01:39:51;;;;;;;5.18;3.78;;;;;;;9.26;76.06;99097.19;5077739;28;20427;-78
2020/12/08 01:42:17;;;;;;;5.22;3.85;;;;;;;9.13;76.09;99084.63;5077496;28;20040;-78
2020/12/08 01:44:49;;;;;;;3.92;3.53;;;;;;;9.31;76.41;99115.06;5077448;28;20174;-77
2020/12/08 01:47:16;;;;;;;4.07;3.67;;;;;;;9.31;76.28;99108.00;5077372;28;20029;-77
2020/12/08 01:49:46;;;;;;;3.95;3.55;;;;;;;9.33;76.49;99113.06;5077351;28;20028;-77
2020/12/08 01:52:15;;;;;;;4.38;3.85;;;;;;;9.14;76.41;99088.91;5077492;28;20025;-76
2020/12/08 01:54:42;;;;;;;5.97;4.93;;;;;;;9.27;76.13;99124.34;5077286;28;20024;-79
2020/12/08 01:57:08;;;;;;;6.43;5.55;;;;;;;8.78;76.18;99051.84;5077369;28;20028;-77
2020/12/08 01:59:33;;;;;;;6.55;5.70;;;;;;;8.79;76.38;99068.47;5077158;28;20447;-77
2020/12/08 02:01:58;;;;;;;5.47;4.80;;;;;;;8.54;76.37;99029.22;5077215;28;20109;-76
2020/12/08 02:04:24;;;;;;;5.85;5.18;;;;;;;8.34;76.51;98988.59;5077060;28;20435;-76
2020/12/08 02:06:49;;;;;;;6.43;5.35;;;;;;;9.21;76.29;99118.78;5059340;28;20024;-78
2020/12/08 02:09:15;;;;;;;6.88;5.72;;;;;;;8.97;76.21;99092.69;5077205;28;20354;-78
2020/12/08 02:11:40;;;;;;;6.40;5.78;;;;;;;9.19;76.20;99123.41;5077247;28;20036;-78
2020/12/08 02:14:05;;;;;;;6.75;6.05;;;;;;;8.89;76.29;99076.94;5077025;28;20028;-77
2020/12/08 02:16:31;;;;;;;6.97;5.60;;;;;;;8.76;76.68;99063.56;5059115;28;20059;-77
2020/12/08 02:18:56;;;;;;;7.63;5.40;;;;;;;8.94;76.74;99102.75;5076890;28;20431;-77
2020/12/08 02:21:32;;;;;;;7.95;6.60;;;;;;;8.97;76.69;99129.53;5076898;28;20028;-79
2020/12/08 02:23:58;;;;;;;9.13;7.72;;;;;;;8.86;76.43;99098.34;5076776;28;20111;-77
2020/12/08 02:26:24;;;;;;;11.30;8.13;;;;;;;8.76;76.77;99084.63;5076855;28;20055;-77
2020/12/08 02:28:50;;;;;;;12.50;9.05;;;;;;;8.86;76.76;99104.44;5058923;28;20085;-75
2020/12/08 02:31:16;;;;;;;9.23;7.65;;;;;;;8.47;76.46;99038.81;5076687;28;20025;-76
2020/12/08 02:33:41;;;;;;;9.15;7.15;;;;;;;8.90;77.12;99116.25;5076543;28;20032;-76
2020/12/08 02:36:07;;;;;;;8.68;7.05;;;;;;;8.84;76.87;99110.88;5058840;28;20021;-76
2020/12/08 02:38:32;;;;;;;9.45;7.05;;;;;;;8.67;76.78;99093.56;5076544;28;20071;-76
2020/12/08 02:40:58;;;;;;;8.80;7.68;;;;;;;8.83;76.75;99098.72;5076516;28;20110;-77
2020/12/08 02:43:23;;;;;;;7.97;7.13;;;;;;;9.04;76.95;99137.56;5076283;28;20036;-76
2020/12/08 02:45:49;;;;;;;6.30;5.70;;;;;;;9.02;76.97;99129.84;5058608;28;20311;-76
2020/12/08 02:48:15;;;;;;;7.88;6.13;;;;;;;8.63;76.68;99074.69;5076483;28;20020;-76
2020/12/08 02:50:41;;;;;;;7.65;6.60;;;;;;;8.88;76.90;99134.03;5058552;28;20154;-76
2020/12/08 02:53:06;;;;;;;8.45;7.25;;;;;;;8.84;77.22;99124.03;5076506;28;20024;-77
2020/12/08 02:55:32;;;;;;;6.97;6.07;;;;;;;8.36;76.84;99047.13;5076291;28;20020;-78
2020/12/08 02:57:57;;;;;;;9.63;7.03;;;;;;;8.63;77.28;99094.94;5076436;28;20028;-77
2020/12/08 03:00:23;;;;;;;9.23;7.25;;;;;;;8.76;77.15;99111.75;5076071;28;20158;-77
2020/12/08 03:02:48;;;;;;;8.82;6.68;;;;;;;8.97;77.10;99144.53;5075970;28;20090;-77
2020/12/08 03:05:14;;;;;;;8.90;6.47;;;;;;;8.93;77.08;99135.34;5061756;28;20090;-78
2020/12/08 03:07:39;;;;;;;10.63;7.85;;;;;;;8.82;77.07;99118.13;5058241;28;20347;-78
2020/12/08 03:10:06;;;;;;;11.57;8.38;;;;;;;8.84;76.72;99113.50;5076016;28;20028;-78
2020/12/08 03:12:32;;;;;;;11.65;8.20;;;;;;;8.77;76.96;99118.66;5058035;28;20449;-76
2020/12/08 03:14:57;;;;;;;11.38;7.75;;;;;;;8.47;76.93;99086.16;5075855;28;20025;-77
2020/12/08 03:17:22;;;;;;;10.07;7.63;;;;;;;8.48;76.59;99079.09;5058222;28;20082;-77
2020/12/08 03:19:50;;;;;;;11.75;7.88;;;;;;;9.03;77.20;99164.88;5075617;28;20385;-77
2020/12/08 03:22:15;;;;;;;11.73;7.90;;;;;;;8.46;77.17;99094.22;5057971;28;20085;-77
2020/12/08 03:24:41;;;;;;;10.35;7.90;;;;;;;8.92;77.02;99176.66;5075490;28;20032;-77
2020/12/08 03:27:06;;;;;;;11.85;8.35;;;;;;;8.96;77.22;99169.22;5075606;28;20024;-77
2020/12/08 03:29:32;;;;;;;12.95;8.50;;;;;;;9.02;77.33;99181.69;5075420;28;20051;-77
2020/12/08 03:31:57;;;;;;;11.95;8.68;;;;;;;8.94;76.85;99179.09;5075486;28;20040;-76
2020/12/08 03:34:22;;;;;;;9.90;7.93;;;;;;;8.84;77.00;99166.97;5075438;28;20027;-76
2020/12/08 03:36:48;;;;;;;11.88;8.35;;;;;;;8.81;77.20;99158.59;5057487;28;20043;-77
2020/12/08 03:39:16;;;;;;;11.00;8.35;;;;;;;8.75;76.74;99139.06;5057712;28;20105;-79
2020/12/08 03:41:42;;;;;;;11.75;9.27;;;;;;;9.01;76.91;99188.75;5075059;28;20331;-77
2020/12/08 03:44:07;;;;;;;11.20;8.77;;;;;;;8.67;77.06;99133.06;5075102;28;20035;-77
2020/12/08 03:46:33;;;;;;;12.00;9.00;;;;;;;8.58;77.03;99133.13;5075258;28;20099;-76
2020/12/08 03:48:58;;;;;;;13.40;9.85;;;;;;;8.81;77.12;99163.88;5075220;28;20411;-76
2020/12/08 03:51:23;;;;;;;11.68;8.68;;;;;;;8.63;77.01;99145.75;5075126;28;20411;-77
2020/12/08 03:53:49;;;;;;;13.20;10.82;;;;;;;8.91;77.02;99210.03;5075123;28;20041;-78
2020/12/08 03:56:19;;;;;;;12.88;9.77;;;;;;;8.82;76.78;99220.78;5057348;28;20039;-78
2020/12/08 03:58:46;;;;;;;15.57;11.85;;;;;;;8.91;76.99;99223.19;5057424;28;20035;-77
2020/12/08 04:01:24;;;;;;;18.85;12.57;;;;;;;8.59;77.02;99187.38;5075046;28;20032;-77
2020/12/08 04:03:51;;;;;;;19.98;14.25;;;;;;;8.64;77.28;99184.22;5075189;28;20025;-79
2020/12/08 04:06:18;;;;;;;19.55;13.88;;;;;;;8.66;77.23;99190.13;5057093;28;20028;-79
2020/12/08 04:08:47;;;;;;;25.10;15.68;;;;;;;8.78;77.13;99212.44;5074903;28;20028;-76
2020/12/08 04:11:14;;;;;;;23.15;14.75;;;;;;;8.82;77.27;99221.59;5078468;28;20046;-76
2020/12/08 04:13:39;;;;;;;21.52;14.13;;;;;;;8.48;77.18;99174.63;5078582;28;20052;-76
2020/12/08 04:16:05;;;;;;;21.17;13.55;;;;;;;8.83;77.11;99235.59;5057242;28;20319;-78
2020/12/08 04:18:30;;;;;;;19.00;13.27;;;;;;;8.66;77.22;99205.09;5074899;28;20032;-77
2020/12/08 04:20:56;;;;;;;17.33;11.60;;;;;;;8.81;76.45;99242.84;5057169;28;20086;-78
2020/12/08 04:23:23;;;;;;;17.48;11.40;;;;;;;7.90;77.23;99115.38;5075110;28;20430;-77
2020/12/08 04:25:51;;;;;;;18.63;13.02;;;;;;;8.39;77.17;99180.09;5074526;28;20082;-77
2020/12/08 04:28:16;;;;;;;19.77;11.80;;;;;;;8.51;77.07;99191.88;5074735;28;20039;-77
2020/12/08 04:30:42;;;;;;;17.42;11.55;;;;;;;8.59;76.85;99226.03;5074562;28;20342;-80
2020/12/08 04:33:08;;;;;;;15.90;10.90;;;;;;;8.83;77.11;99243.50;5074545;28;20112;-78
2020/12/08 04:35:34;;;;;;;18.17;12.02;;;;;;;8.77;76.12;99231.84;5056743;28;20017;-76
2020/12/08 04:38:00;;;;;;;15.27;10.90;;;;;;;8.62;76.70;99196.75;5074572;28;20413;-76
2020/12/08 04:40:26;;;;;;;13.80;9.60;;;;;;;8.87;76.19;99234.25;5074501;28;20035;-77
2020/12/08 04:42:55;;;;;;;12.70;8.50;;;;;;;8.70;76.25;99217.75;5074507;28;20074;-77
2020/12/08 04:45:22;;;;;;;12.20;8.48;;;;;;;8.96;76.15;99245.56;5074613;28;20028;-76
2020/12/08 04:47:49;;;;;;;9.88;7.20;;;;;;;8.93;76.20;99251.19;5074341;28;20028;-76
2020/12/08 04:50:18;;;;;;;8.65;6.30;;;;;;;8.88;76.13;99244.59;5074417;28;20120;-77
2020/12/08 04:52:45;;;;;;;8.95;6.25;;;;;;;8.60;76.22;99204.00;5076217;28;20107;-76
2020/12/08 04:55:11;;;;;;;8.88;6.20;;;;;;;8.71;75.76;99219.38;5060813;28;20323;-76
2020/12/08 04:57:40;;;;;;;7.95;6.13;;;;;;;8.88;75.89;99251.69;5078414;28;20033;-77
2020/12/08 05:00:10;;;;;;;7.90;6.10;;;;;;;8.83;75.87;99244.31;5078538;28;20032;-76
2020/12/08 05:02:46;;;;;;;8.07;5.65;;;;;;;8.35;76.15;99179.63;5078124;28;20427;-76
2020/12/08 05:05:11;;;;;;;9.20;6.05;;;;;;;8.64;75.87;99220.25;5060584;28;20024;-76
2020/12/08 05:07:37;;;;;;;9.25;6.13;;;;;;;8.42;75.63;99200.81;5078122;28;20032;-76
2020/12/08 05:10:02;;;;;;;7.72;6.00;;;;;;;8.65;76.14;99220.06;5060503;28;20423;-76
2020/12/08 05:12:28;;;;;;;7.70;5.63;;;;;;;8.46;76.02;99202.91;5078205;28;20088;-77
2020/12/08 05:14:53;;;;;;;8.85;6.25;;;;;;;8.63;75.75;99239.66;5078237;28;20024;-76
2020/12/08 05:17:26;;;;;;;9.45;7.00;;;;;;;8.81;76.07;99254.19;5060295;28;20033;-76
2020/12/08 05:20:28;;;;;;;13.35;9.35;;;;;;;8.79;75.77;99268.53;5082063;28;20036;-77
2020/12/08 05:22:56;;;;;;;17.83;13.05;;;;;;;8.57;75.78;99222.75;4997351;28;20042;-77
2020/12/08 05:25:23;;;;;;;17.85;13.30;;;;;;;8.46;76.00;99209.97;5062915;28;20419;-77
2020/12/08 05:27:50;;;;;;;22.13;14.35;;;;;;;8.64;75.49;99228.13;5077826;28;20039;-76
2020/12/08 05:30:16;;;;;;;18.08;13.50;;;;;;;8.81;75.34;99256.81;5077853;28;20025;-77
2020/12/08 05:32:42;;;;;;;18.95;14.10;;;;;;;8.97;75.39;99265.66;5059992;28;20031;-77
2020/12/08 05:35:19;;;;;;;21.95;16.20;;;;;;;9.03;75.12;99275.47;5077882;28;20104;-76
2020/12/08 05:37:46;;;;;;;23.50;17.83;;;;;;;9.06;75.27;99277.75;5059883;28;20025;-77
2020/12/08 05:40:17;;;;;;;21.63;15.82;;;;;;;8.87;74.94;99250.88;5059926;28;20028;-77
2020/12/08 05:42:48;;;;;;;24.45;17.40;;;;;;;9.04;74.68;99275.31;5059513;28;20039;-77
2020/12/08 05:45:16;;;;;;;16.15;11.60;;;;;;;9.17;74.78;99277.34;5077722;28;20454;-76
2020/12/08 05:47:46;;;;;;;24.88;17.45;;;;;;;9.22;74.23;99281.09;5059865;28;20052;-76
2020/12/08 05:50:12;;;;;;;26.40;17.15;;;;;;;9.09;74.30;99258.97;5077659;28;20038;-77
2020/12/08 05:52:40;;;;;;;22.63;14.98;;;;;;;9.08;73.80;99262.59;5077374;28;20031;-77
2020/12/08 05:55:10;;;;;;;23.27;15.20;;;;;;;9.18;74.25;99295.63;5059743;28;20031;-76
2020/12/08 05:57:36;;;;;;;22.48;14.63;;;;;;;9.03;73.92;99278.13;5059722;28;20028;-75
2020/12/08 06:00:03;;;;;;;24.30;16.17;;;;;;;9.11;74.12;99302.59;5059844;28;20434;-76
2020/12/08 06:02:30;;;;;;;22.27;14.48;;;;;;;8.80;74.36;99255.19;5077175;28;20036;-76
2020/12/08 06:04:57;;;;;;;20.10;13.60;;;;;;;8.97;74.46;99313.03;5077211;28;20055;-76
2020/12/08 06:07:30;;;;;;;24.38;14.98;;;;;;;8.96;74.33;99291.16;5059631;28;20115;-76
2020/12/08 06:10:11;;;;;;;22.25;15.18;;;;;;;8.55;74.25;99238.72;5077373;28;20024;-76
2020/12/08 06:12:38;;;;;;;23.95;15.05;;;;;;;8.65;74.25;99261.34;5059436;28;20417;-77
2020/12/08 06:15:24;;;;;;;20.10;14.32;;;;;;;8.99;74.09;99317.13;5077490;28;20017;-76
2020/12/08 06:17:50;;;;;;;18.50;13.60;;;;;;;8.82;74.51;99292.69;5059408;28;20408;-75
2020/12/08 06:20:16;;;;;;;22.88;14.73;;;;;;;8.80;74.68;99292.03;5059378;28;20024;-75
2020/12/08 06:22:55;;;;;;;23.50;16.55;;;;;;;8.90;74.48;99307.63;5058940;28;20044;-76
2020/12/08 06:25:21;;;;;;;20.98;14.43;;;;;;;8.59;74.49;99266.31;5059091;28;20028;-76
2020/12/08 06:27:46;;;;;;;27.63;18.35;;;;;;;8.75;74.66;99294.38;5059012;28;20442;-76
2020/12/08 06:30:12;;;;;;;28.08;18.70;;;;;;;8.71;74.25;99289.63;5059030;28;20373;-76
2020/12/08 06:32:41;;;;;;;30.50;20.65;;;;;;;8.93;74.61;99315.19;5076714;28;20029;-76
2020/12/08 06:35:15;;;;;;;30.10;20.05;;;;;;;8.95;74.46;99310.59;5058813;28;20028;-75
2020/12/08 06:37:45;;;;;;;30.48;20.90;;;;;;;8.95;74.68;99310.59;5076891;28;20029;-76
2020/12/08 06:40:14;;;;;;;42.40;25.88;;;;;;;8.99;74.61;99308.44;5077007;28;20028;-80
2020/12/08 06:42:39;;;;;;;38.83;26.50;;;;;;;9.00;74.79;99310.06;5056545;28;20101;-77
2020/12/08 06:45:06;;;;;;;40.45;28.92;;;;;;;8.35;74.64;99213.81;5058240;28;20111;-76
2020/12/08 06:47:32;;;;;;;42.47;27.90;;;;;;;9.05;74.57;99313.00;5076578;28;20024;-76
2020/12/08 06:49:58;;;;;;;41.88;28.42;;;;;;;8.99;74.26;99308.44;5075466;28;20032;-77
2020/12/08 06:52:23;;;;;;;45.63;34.20;;;;;;;9.00;74.24;99302.16;5058975;28;20031;-75
2020/12/08 06:55:03;;;;;;;50.88;35.53;;;;;;;9.10;74.28;99316.75;5076385;28;20415;-76
2020/12/08 06:57:29;;;;;;;58.28;40.58;;;;;;;9.10;74.27;99319.38;5076319;28;20125;-76
2020/12/08 07:00:06;;;;;;;63.10;40.05;;;;;;;9.07;73.98;99318.91;5076356;28;20067;-76
2020/12/08 07:02:39;;;;;;;60.15;40.85;;;;;;;8.91;74.12;99311.88;5076046;28;20032;-76
2020/12/08 07:05:08;;;;;;;57.35;38.40;;;;;;;9.05;74.01;99320.91;5058575;28;20028;-75
2020/12/08 07:07:33;;;;;;;40.92;28.80;;;;;;;9.02;73.79;99323.88;5075828;28;20032;-76
2020/12/08 07:09:59;;;;;;;42.28;28.50;;;;;;;9.07;73.99;99329.44;5076016;28;20029;-78
2020/12/08 07:12:25;;;;;;;56.65;39.15;;;;;;;9.11;73.65;99328.09;5058730;28;20378;-75
2020/12/08 07:14:59;;;;;;;54.78;38.65;;;;;;;8.79;73.75;99273.78;5074919;28;20048;-80
2020/12/08 07:17:29;;;;;;;59.22;38.72;;;;;;;9.13;73.75;99331.38;5075883;28;20065;-74
2020/12/08 07:19:55;;;;;;;43.17;30.60;;;;;;;8.93;73.67;99302.03;5076693;28;20132;-76
2020/12/08 07:22:20;;;;;;;50.30;33.70;;;;;;;9.08;73.69;99318.72;5077596;28;20473;-81
2020/12/08 07:24:47;;;;;;;38.88;27.17;;;;;;;8.52;73.53;99235.59;5058002;28;20031;-79
2020/12/08 07:27:13;;;;;;;44.42;29.23;;;;;;;8.99;73.35;99308.44;5057776;28;20032;-81
2020/12/08 07:29:42;;;;;;;42.85;29.58;;;;;;;9.06;73.14;99314.63;5050664;28;20434;-81
2020/12/08 07:32:07;;;;;;;36.83;26.85;;;;;;;8.44;73.05;99212.78;5073788;28;20025;-78
2020/12/08 07:34:33;;;;;;;38.15;27.08;;;;;;;9.20;72.90;99330.50;5075521;28;20081;-78
2020/12/08 07:36:58;;;;;;;33.50;24.30;;;;;;;9.05;72.96;99310.34;5056076;28;20032;-76
2020/12/08 07:39:28;;;;;;;37.58;23.95;;;;;;;8.97;72.48;99286.72;5082183;28;20028;-78
2020/12/08 07:42:04;;;;;;;33.67;23.00;;;;;;;9.05;72.52;99299.81;5066162;28;20091;-78
2020/12/08 07:44:31;;;;;;;27.58;18.63;;;;;;;9.19;72.82;99323.59;5070331;23;20057;-82
2020/12/08 07:46:56;;;;;;;16.45;12.00;;;;;;;8.78;72.98;99265.06;5042347;28;20032;-75
2020/12/08 07:49:22;;;;;;;14.52;10.20;;;;;;;9.11;72.83;99304.41;5060015;23;20390;-76
2020/12/08 07:51:50;;;;;;;12.40;8.93;;;;;;;9.07;73.17;99303.09;5053615;28;20032;-75
2020/12/08 07:54:15;;;;;;;10.35;8.25;;;;;;;8.99;72.77;99293.44;5057391;28;20021;-84
2020/12/08 07:56:41;;;;;;;13.63;9.07;;;;;;;8.75;73.17;99248.81;5057064;28;20077;-82
2020/12/08 07:59:06;;;;;;;11.68;7.15;;;;;;;9.03;72.79;99283.38;5053831;28;20032;-82
2020/12/08 08:03:57;;;;;;;7.52;4.90;;;;;;;9.08;72.84;99286.31;5062564;22;20075;-78
2020/12/08 08:06:24;;;;;;;7.93;5.20;;;;;;;9.52;72.58;99360.25;5035211;28;20037;-78
2020/12/08 08:08:51;;;;;;;8.52;6.30;;;;;;;9.33;72.38;99318.56;5030749;28;20423;-77
2020/12/08 08:11:17;;;;;;;9.02;5.93;;;;;;;9.45;72.21;99340.88;5053332;28;20935;-77
2020/12/08 08:13:42;;;;;;;11.13;7.28;;;;;;;9.52;72.38;99357.63;5052238;28;20118;-78
2020/12/08 08:16:12;;;;;;;8.02;5.90;;;;;;;9.53;72.44;99354.81;5037045;28;20052;-77
2020/12/08 08:18:38;;;;;;;10.30;6.20;;;;;;;8.95;71.94;99275.53;5034548;28;20075;-76
2020/12/08 08:21:03;;;;;;;7.65;5.28;;;;;;;9.53;72.23;99367.19;5048378;28;20454;-77
2020/12/08 08:23:30;;;;;;;10.32;7.03;;;;;;;9.32;72.28;99330.94;5036713;28;20026;-77
2020/12/08 08:25:56;;;;;;;9.57;6.88;;;;;;;9.56;72.41;99372.91;5053273;28;20029;-78
2020/12/08 08:28:22;;;;;;;10.43;7.18;;;;;;;9.59;72.22;99358.56;5053616;28;20443;-77
2020/12/08 08:30:48;;;;;;;11.77;8.88;;;;;;;9.62;72.24;99368.75;5052883;28;20116;-76
2020/12/08 08:33:13;;;;;;;12.48;8.20;;;;;;;9.67;72.13;99400.72;5053329;28;20043;-77
2020/12/08 08:35:39;;;;;;;8.23;5.53;;;;;;;9.56;72.41;99353.66;5053129;28;20027;-75
2020/12/08 08:38:04;;;;;;;9.05;5.63;;;;;;;9.27;72.64;99309.56;5054398;28;20111;-80
2020/12/08 08:40:31;;;;;;;8.52;5.65;;;;;;;9.66;72.69;99382.41;5054252;28;20025;-80
2020/12/08 08:42:57;;;;;;;8.15;5.60;;;;;;;9.38;72.05;99313.59;5035419;28;20444;-82
2020/12/08 08:45:22;;;;;;;8.43;4.90;;;;;;;9.37;71.92;99315.41;5035956;28;20079;-82
2020/12/08 08:47:48;;;;;;;7.63;5.25;;;;;;;9.38;71.76;99311.78;5052216;28;20079;-83
2020/12/08 08:50:13;;;;;;;6.38;4.28;;;;;;;9.85;71.98;99379.31;5036592;28;20025;-83
2020/12/08 08:52:39;;;;;;;6.30;4.57;;;;;;;9.85;72.07;99398.59;5051527;28;20033;-85
2020/12/08 08:55:05;;;;;;;6.65;4.75;;;;;;;9.88;71.83;99389.50;5020845;28;20041;-80
2020/12/08 08:57:30;;;;;;;6.10;4.20;;;;;;;8.79;71.94;99198.28;5042517;28;20329;-79
2020/12/08 08:59:56;;;;;;;6.75;4.60;;;;;;;9.94;71.94;99375.63;5049039;28;20328;-77
2020/12/08 09:02:21;;;;;;;9.65;6.00;;;;;;;9.95;71.91;99394.91;5043695;28;20036;-80
2020/12/08 09:04:46;;;;;;;6.35;4.68;;;;;;;9.77;71.63;99347.75;5017574;28;20056;-81
2020/12/08 09:07:12;;;;;;;9.88;6.43;;;;;;;9.80;71.98;99347.41;5033803;28;20037;-78
2020/12/08 09:09:37;;;;;;;9.25;6.85;;;;;;;9.45;71.70;99280.28;5016460;28;20017;-82
2020/12/08 09:12:03;;;;;;;7.93;5.57;;;;;;;10.05;71.45;99377.00;5024678;28;20336;-81
2020/12/08 09:14:30;;;;;;;4.82;3.40;;;;;;;9.87;71.30;99337.78;5034545;28;20474;-79
2020/12/08 09:16:56;;;;;;;5.60;3.85;;;;;;;9.91;70.63;99340.88;5036045;28;20032;-81
2020/12/08 09:19:22;;;;;;;7.00;4.03;;;;;;;9.84;70.61;99338.94;5035886;28;20021;-82
2020/12/08 09:21:53;;;;;;;5.70;3.25;;;;;;;9.92;70.55;99339.88;5036082;28;20108;-78
2020/12/08 09:24:19;;;;;;;4.13;3.13;;;;;;;9.79;69.97;99308.84;5051234;28;20040;-79
2020/12/08 09:26:45;;;;;;;6.07;3.72;;;;;;;9.68;70.30;99285.53;5053732;28;20029;-82
2020/12/08 09:29:10;;;;;;;5.13;3.42;;;;;;;9.40;70.31;99243.09;5053609;28;20025;-82
2020/12/08 09:31:36;;;;;;;4.82;3.40;;;;;;;9.71;70.27;99282.56;5053451;28;20337;-79
2020/12/08 09:34:01;;;;;;;6.25;4.45;;;;;;;9.89;69.97;99330.50;5052081;28;20403;-81
2020/12/08 09:36:27;;;;;;;5.57;3.72;;;;;;;9.47;70.31;99231.66;5044886;28;20029;-80
2020/12/08 09:38:52;;;;;;;4.10;3.35;;;;;;;9.93;70.23;99301.94;5048762;28;20039;-78
2020/12/08 09:41:18;;;;;;;5.57;4.03;;;;;;;9.86;69.29;99272.84;5038651;28;20091;-80
2020/12/08 09:43:43;;;;;;;3.55;3.15;;;;;;;9.37;69.74;99173.13;5057368;28;20078;-77
2020/12/08 09:46:09;;;;;;;3.97;3.33;;;;;;;10.48;69.57;99355.19;5051199;28;20025;-77
2020/12/08 09:48:34;;;;;;;6.15;4.78;;;;;;;10.43;69.04;99335.63;5047844;28;20072;-77
2020/12/08 09:51:00;;;;;;;5.03;3.67;;;;;;;10.57;68.30;99350.63;5056388;28;20056;-80
2020/12/08 09:53:25;;;;;;;4.63;2.80;;;;;;;10.02;68.01;99272.69;5053204;28;20052;-81
2020/12/08 09:55:51;;;;;;;4.72;3.70;;;;;;;9.92;67.76;99248.41;5020070;28;20018;-81
2020/12/08 09:58:17;;;;;;;4.63;3.83;;;;;;;10.26;67.30;99276.06;5046729;28;20033;-76
2020/12/08 10:00:43;;;;;;;7.97;5.28;;;;;;;10.81;67.68;99360.09;5047159;28;20384;-79
2020/12/08 10:03:11;;;;;;;7.78;5.72;;;;;;;10.42;66.41;99283.84;5018630;28;20095;-81
2020/12/08 10:05:37;;;;;;;10.57;5.88;;;;;;;10.06;66.83;99226.47;5018716;28;20018;-78
2020/12/08 10:08:02;;;;;;;6.80;4.57;;;;;;;10.82;67.10;99337.97;5036673;28;20037;-78
2020/12/08 10:10:28;;;;;;;5.18;3.80;;;;;;;10.76;66.88;99325.50;5036909;28;20075;-78
2020/12/08 10:12:53;;;;;;;4.90;4.18;;;;;;;10.96;66.73;99355.59;5019108;28;20040;-77
2020/12/08 10:15:20;;;;;;;5.05;4.13;;;;;;;10.42;66.37;99247.72;5036758;28;20022;-78
2020/12/08 10:17:46;;;;;;;5.68;3.90;;;;;;;10.93;66.49;99341.94;5018923;28;20039;-78
2020/12/08 10:20:11;;;;;;;4.25;2.97;;;;;;;11.13;66.72;99356.19;5036588;28;20025;-77
2020/12/08 10:22:37;;;;;;;4.50;3.20;;;;;;;10.80;66.50;99295.88;5019004;28;20440;-76
2020/12/08 10:25:03;;;;;;;6.10;4.85;;;;;;;10.63;66.56;99275.97;5019109;28;20029;-76
2020/12/08 10:27:31;;;;;;;7.00;4.90;;;;;;;10.83;65.95;99299.97;5043438;28;20090;-75
2020/12/08 10:29:57;;;;;;;6.38;4.78;;;;;;;10.52;66.43;99257.16;5037563;28;20115;-75
2020/12/08 10:32:23;;;;;;;6.40;4.30;;;;;;;11.20;66.64;99357.13;5049978;28;20112;-77
2020/12/08 10:34:49;;;;;;;4.85;3.72;;;;;;;10.76;66.43;99284.06;5028754;28;20033;-77
2020/12/08 10:37:14;;;;;;;5.40;3.88;;;;;;;11.32;66.46;99371.50;5036377;28;20025;-76
2020/12/08 10:39:40;;;;;;;4.88;3.90;;;;;;;10.92;66.05;99304.16;5018689;28;20029;-76
2020/12/08 10:42:05;;;;;;;6.72;4.28;;;;;;;11.02;65.91;99332.91;5018624;28;20080;-82
2020/12/08 10:44:30;;;;;;;6.50;4.78;;;;;;;11.18;66.21;99353.84;5036126;28;20029;-77
2020/12/08 10:46:56;;;;;;;7.45;5.22;;;;;;;11.37;65.67;99373.56;5036305;28;20022;-77
2020/12/08 10:49:22;;;;;;;5.20;4.03;;;;;;;11.34;65.94;99374.75;5052435;28;20094;-77
2020/12/08 10:51:48;;;;;;;5.13;3.60;;;;;;;11.21;65.71;99344.72;5048857;28;20447;-78
2020/12/08 10:54:13;;;;;;;18.48;13.13;;;;;;;11.36;65.57;99353.44;5024641;28;20022;-78
2020/12/08 10:56:39;;;;;;;8.32;6.25;;;;;;;11.37;65.53;99363.81;5036012;28;20017;-77
2020/12/08 10:59:04;;;;;;;18.00;12.25;;;;;;;11.37;65.92;99363.00;5035905;28;20328;-77
2020/12/08 11:01:30;;;;;;;8.00;5.22;;;;;;;11.34;65.91;99350.97;5032653;28;20029;-78
2020/12/08 11:03:56;;;;;;;6.28;4.88;;;;;;;11.32;65.47;99349.53;5049944;28;20040;-77
2020/12/08 11:06:27;;;;;;;4.38;3.55;;;;;;;11.07;65.27;99326.06;5034966;28;20068;-76
2020/12/08 11:08:54;;;;;;;11.00;6.95;;;;;;;10.75;65.42;99263.13;5054386;28;20493;-78
2020/12/08 11:11:28;;;;;;;5.53;4.35;;;;;;;11.27;65.17;99350.09;5053290;28;20067;-77
2020/12/08 11:13:57;;;;;;;5.03;3.60;;;;;;;10.94;64.67;99285.47;5052531;28;20057;-77
2020/12/08 11:16:24;;;;;;;6.57;4.22;;;;;;;11.31;65.04;99354.00;5052514;28;20033;-78
2020/12/08 11:18:50;;;;;;;7.15;4.97;;;;;;;11.30;65.24;99355.00;5035807;28;20037;-77
2020/12/08 11:21:22;;;;;;;5.50;4.43;;;;;;;10.79;65.18;99259.09;5028960;28;20434;-79
2020/12/08 11:23:47;;;;;;;;;;;;;;;11.25;64.93;99349.47;5052696;28;20029;-76
2020/12/08 11:26:13;;;;;;;6.25;4.70;;;;;;;11.29;65.13;99350.72;5045137;28;19913;-81
2020/12/08 11:28:40;;;;;;;8.07;4.70;;;;;;;10.55;64.97;99236.50;5029824;28;20083;-83
2020/12/08 11:31:06;;;;;;;5.32;4.00;;;;;;;11.21;64.77;99332.34;5037009;28;20024;-81
2020/12/08 11:33:31;;;;;;;10.25;5.50;;;;;;;11.32;64.94;99362.75;5055244;28;20488;-77